Time;durP1;ratioP1;P1;durP2;ratioP2;P2;SDS_P1;SDS_P2;PMS_P1;PMS_P2;Temp;Humidity;BMP_temperature;BMP_pressure;BME280_temperature;BME280_humidity;BME280_pressure;Samples;Min_cycle;Max_cycle;Signal;HPM_P1;HPM_P2
2020/12/11 00:00:54;;;;;;;;;;;6.40;75.30;;;;;;4949893;28;121152;-87
2020/12/11 00:03:20;;;;;;;;;;;6.50;75.30;;;;;;4949936;28;119896;-87
2020/12/11 00:05:45;;;;;;;;;;;6.50;75.30;;;;;;4950867;28;118071;-87
2020/12/11 00:08:11;;;;;;;;;;;6.50;75.30;;;;;;4950439;28;117938;-87
2020/12/11 00:10:36;;;;;;;;;;;6.50;75.30;;;;;;4949428;28;120178;-87
2020/12/11 00:13:02;;;;;;;;;;;6.50;75.40;;;;;;4949795;28;120360;-87
2020/12/11 00:15:27;;;;;;;;;;;6.50;75.40;;;;;;4950795;28;117552;-87
2020/12/11 00:17:53;;;;;;;;;;;6.50;75.40;;;;;;4950914;28;117507;-87
2020/12/11 00:20:18;;;;;;;;;;;6.50;75.40;;;;;;4949672;28;119722;-87
2020/12/11 00:22:44;;;;;;;;;;;6.50;75.30;;;;;;4949573;28;120208;-87
2020/12/11 00:25:10;;;;;;;;;;;6.40;75.30;;;;;;4950771;28;117566;-87
2020/12/11 00:27:36;;;;;;;;;;;6.50;75.30;;;;;;4950862;28;117578;-87
2020/12/11 00:30:01;;;;;;;;;;;6.50;75.30;;;;;;4949146;28;121325;-87
2020/12/11 00:32:27;;;;;;;;;;;6.40;75.30;;;;;;4948907;28;120001;-87
2020/12/11 00:34:53;;;;;;;;;;;6.50;75.40;;;;;;4950271;28;117277;-87
2020/12/11 00:37:18;;;;;;;;;;;6.50;75.30;;;;;;4950636;28;117826;-86
2020/12/11 00:39:44;;;;;;;;;;;6.50;75.30;;;;;;4949223;28;121108;-87
2020/12/11 00:42:09;;;;;;;;;;;6.50;75.30;;;;;;4949622;28;119233;-87
2020/12/11 00:44:35;;;;;;;;;;;6.50;75.40;;;;;;4950099;28;117556;-87
2020/12/11 00:47:01;;;;;;;;;;;6.50;75.40;;;;;;4950781;28;117295;-87
2020/12/11 00:49:27;;;;;;;;;;;6.50;75.40;;;;;;4949396;28;120082;-87
2020/12/11 00:51:53;;;;;;;;;;;6.50;75.40;;;;;;4949117;28;120158;-87
2020/12/11 00:54:18;;;;;;;;;;;6.50;75.40;;;;;;4950218;28;117637;-86
2020/12/11 00:56:44;;;;;;;;;;;6.50;75.40;;;;;;4949855;28;117900;-87
2020/12/11 00:59:09;;;;;;;;;;;6.50;75.40;;;;;;4948070;28;121357;-87
2020/12/11 01:01:35;;;;;;;;;;;6.50;75.40;;;;;;4948775;28;121282;-87
2020/12/11 01:04:01;;;;;;;;;;;6.50;75.40;;;;;;4949737;28;117259;-87
2020/12/11 01:06:26;;;;;;;;;;;6.40;75.30;;;;;;4950352;28;117838;-87
2020/12/11 01:08:52;;;;;;;;;;;6.50;75.40;;;;;;4948901;28;120109;-87
2020/12/11 01:11:17;;;;;;;;;;;6.50;75.40;;;;;;4948505;28;120488;-87
2020/12/11 01:13:43;;;;;;;;;;;6.40;75.30;;;;;;4950158;28;117289;-87
2020/12/11 01:16:08;;;;;;;;;;;6.50;75.30;;;;;;4949990;28;117360;-87
2020/12/11 01:18:34;;;;;;;;;;;6.40;75.30;;;;;;4948756;28;121355;-87
2020/12/11 01:20:59;;;;;;;;;;;6.40;75.30;;;;;;4948030;28;120775;-87
2020/12/11 01:23:25;;;;;;;;;;;6.50;75.40;;;;;;4949318;28;117483;-87
2020/12/11 01:25:50;;;;;;;;;;;6.40;75.30;;;;;;4949819;28;117945;-87
2020/12/11 01:28:16;;;;;;;;;;;6.40;75.30;;;;;;4948686;28;120116;-87
2020/12/11 01:30:41;;;;;;;;;;;6.40;75.30;;;;;;4948564;28;119406;-87
2020/12/11 01:33:07;;;;;;;;;;;6.40;75.40;;;;;;4949401;28;117463;-87
2020/12/11 01:35:32;;;;;;;;;;;6.40;75.30;;;;;;4949783;28;117901;-87
2020/12/11 01:37:58;;;;;;;;;;;6.50;75.30;;;;;;4948707;28;120900;-87
2020/12/11 01:40:23;;;;;;;;;;;6.40;75.30;;;;;;4948335;28;120025;-87
2020/12/11 01:42:49;;;;;;;;;;;6.40;75.30;;;;;;4949483;28;117572;-87
2020/12/11 01:45:14;;;;;;;;;;;6.50;75.40;;;;;;4965409;28;117928;-87
2020/12/11 01:47:40;;;;;;;;;;;6.50;75.30;;;;;;4948444;28;120280;-87
2020/12/11 01:50:06;;;;;;;;;;;6.40;75.30;;;;;;4947871;28;120545;-87
2020/12/11 01:52:31;;;;;;;;;;;6.40;75.30;;;;;;4949337;28;117532;-87
2020/12/11 01:54:57;;;;;;;;;;;6.50;75.40;;;;;;4949636;28;117303;-87
2020/12/11 01:57:23;;;;;;;;;;;6.40;75.30;;;;;;4964610;28;117409;-87
2020/12/11 01:59:51;;;;;;;;;;;6.40;75.30;;;;;;4948097;28;119343;-87
2020/12/11 02:02:16;;;;;;;;;;;6.40;75.90;;;;;;4949286;28;117513;-87
2020/12/11 02:04:41;;;;;;;;;;;6.40;75.30;;;;;;4949189;28;117900;-87
2020/12/11 02:07:07;;;;;;;;;;;6.40;75.30;;;;;;4947900;28;121385;-87
2020/12/11 02:09:33;;;;;;;;;;;6.40;75.30;;;;;;4947386;28;119313;-87
2020/12/11 02:11:58;;;;;;;;;;;6.40;75.40;;;;;;4948791;28;117537;-87
2020/12/11 02:14:24;;;;;;;;;;;6.40;75.30;;;;;;4949121;28;117466;-87
2020/12/11 02:16:54;;;;;;;;;;;6.40;75.30;;;;;;4947986;28;120152;-87
2020/12/11 02:19:20;;;;;;;;;;;6.40;75.30;;;;;;4947849;28;120554;-87
2020/12/11 02:21:45;;;;;;;;;;;6.40;75.30;;;;;;4948550;28;117844;-87
2020/12/11 02:24:11;;;;;;;;;;;6.40;75.30;;;;;;4948842;28;117844;-87
2020/12/11 02:26:36;;;;;;;;;;;6.40;75.20;;;;;;4947925;28;119971;-87
2020/12/11 02:29:02;;;;;;;;;;;6.40;75.30;;;;;;4947612;28;119982;-87
2020/12/11 02:31:27;;;;;;;;;;;6.40;75.30;;;;;;4948337;28;117725;-87
2020/12/11 02:33:53;;;;;;;;;;;6.40;75.30;;;;;;4948566;28;117899;-87
2020/12/11 02:36:19;;;;;;;;;;;6.40;75.30;;;;;;4947597;28;120902;-87
2020/12/11 02:38:44;;;;;;;;;;;6.40;75.30;;;;;;4947511;28;120493;-87
2020/12/11 02:41:10;;;;;;;;;;;6.50;75.30;;;;;;4948243;28;117475;-87
2020/12/11 02:43:38;;;;;;;;;;;6.40;75.30;;;;;;4948718;28;117817;-87
2020/12/11 02:46:04;;;;;;;;;;;6.40;75.30;;;;;;4947901;28;121311;-87
2020/12/11 02:48:30;;;;;;;;;;;6.40;75.30;;;;;;4947401;28;120380;-87
2020/12/11 02:50:56;;;;;;;;;;;6.40;75.30;;;;;;4948409;28;117576;-87
2020/12/11 02:53:21;;;;;;;;;;;6.40;75.20;;;;;;4948777;28;117876;-87
2020/12/11 02:55:47;;;;;;;;;;;6.40;75.20;;;;;;4947502;28;121050;-87
2020/12/11 02:58:12;;;;;;;;;;;6.40;75.20;;;;;;4946698;28;120190;-87
2020/12/11 03:00:38;;;;;;;;;;;6.40;75.20;;;;;;4947732;28;117597;-87
2020/12/11 03:03:03;;;;;;;;;;;6.40;75.30;;;;;;4948619;28;117491;-87
2020/12/11 03:05:29;;;;;;;;;;;6.50;75.30;;;;;;4947060;28;120160;-87
2020/12/11 03:07:54;;;;;;;;;;;6.40;75.20;;;;;;4947127;28;119258;-87
2020/12/11 03:10:20;;;;;;;;;;;6.40;75.20;;;;;;4947426;28;117426;-87
2020/12/11 03:12:45;;;;;;;;;;;6.40;75.20;;;;;;4948157;28;117519;-87
2020/12/11 03:15:11;;;;;;;;;;;6.40;75.20;;;;;;4947104;28;121245;-87
2020/12/11 03:17:36;;;;;;;;;;;6.40;75.30;;;;;;4946990;28;120198;-87
2020/12/11 03:20:02;;;;;;;;;;;6.40;75.20;;;;;;4947693;28;117491;-87
2020/12/11 03:22:27;;;;;;;;;;;6.40;75.20;;;;;;4947001;28;117701;-87
2020/12/11 03:24:53;;;;;;;;;;;6.40;75.20;;;;;;4947009;28;119878;-87
2020/12/11 03:27:18;;;;;;;;;;;6.40;75.20;;;;;;4946808;28;118488;-87
2020/12/11 03:29:44;;;;;;;;;;;6.40;75.20;;;;;;4947858;28;117587;-87
2020/12/11 03:32:09;;;;;;;;;;;6.40;75.20;;;;;;4948098;28;117431;-87
2020/12/11 03:34:35;;;;;;;;;;;6.40;75.20;;;;;;4946866;28;121405;-87
2020/12/11 03:37:00;;;;;;;;;;;6.40;75.20;;;;;;4947014;28;119315;-87
2020/12/11 03:39:26;;;;;;;;;;;6.40;75.20;;;;;;4947885;28;117646;-87
2020/12/11 03:41:52;;;;;;;;;;;6.40;75.20;;;;;;4948056;28;118043;-87
2020/12/11 03:44:17;;;;;;;;;;;6.40;75.20;;;;;;4946554;28;121115;-87
2020/12/11 03:46:43;;;;;;;;;;;6.40;75.20;;;;;;4946078;28;120483;-87
2020/12/11 03:49:08;;;;;;;;;;;6.40;75.10;;;;;;4947708;28;117531;-87
2020/12/11 03:51:34;;;;;;;;;;;6.40;75.20;;;;;;4947909;28;117490;-87
2020/12/11 03:53:59;;;;;;;;;;;6.40;75.10;;;;;;4946590;28;120421;-87
2020/12/11 03:56:25;;;;;;;;;;;6.40;75.10;;;;;;4946699;28;119605;-87
2020/12/11 03:58:50;;;;;;;;;;;6.40;75.70;;;;;;4947546;28;117795;-87
2020/12/11 04:01:16;;;;;;;;;;;6.40;75.10;;;;;;4947769;28;117767;-87
2020/12/11 04:03:41;;;;;;;;;;;6.40;75.10;;;;;;4946931;28;121520;-87
2020/12/11 04:06:07;;;;;;;;;;;6.40;75.10;;;;;;4946382;28;119244;-87
2020/12/11 04:08:33;;;;;;;;;;;6.40;75.10;;;;;;4964108;28;117626;-87
2020/12/11 04:13:26;;;;;;;;;;;6.40;75.10;;;;;;4987784;28;117610;-82
2020/12/11 04:15:52;;;;;;;;;;;6.40;75.10;;;;;;4956431;28;118146;-82
2020/12/11 04:18:17;;;;;;;;;;;6.40;75.10;;;;;;4957665;28;117672;-82
2020/12/11 04:20:43;;;;;;;;;;;6.40;75.10;;;;;;4975178;28;117821;-82
2020/12/11 04:23:08;;;;;;;;;;;6.40;75.10;;;;;;4957567;28;117477;-82
2020/12/11 04:25:34;;;;;;;;;;;6.40;75.20;;;;;;4957410;28;117675;-82
2020/12/11 04:27:59;;;;;;;;;;;6.40;75.10;;;;;;4959005;28;117810;-82
2020/12/11 04:30:25;;;;;;;;;;;6.40;75.10;;;;;;4959791;28;117878;-82
2020/12/11 04:32:50;;;;;;;;;;;6.40;75.10;;;;;;4975451;28;118769;-82
2020/12/11 04:35:16;;;;;;;;;;;6.40;75.10;;;;;;4960261;28;117458;-82
2020/12/11 04:37:41;;;;;;;;;;;6.40;75.10;;;;;;4963729;28;117573;-82
2020/12/11 04:40:07;;;;;;;;;;;6.40;75.10;;;;;;4964350;28;117894;-82
2020/12/11 04:42:34;;;;;;;;;;;6.40;75.10;;;;;;4960258;28;118533;-82
2020/12/11 04:44:59;;;;;;;;;;;6.40;75.00;;;;;;4954858;28;118437;-82
2020/12/11 04:47:25;;;;;;;;;;;6.40;75.10;;;;;;4955927;28;117550;-82
2020/12/11 04:49:50;;;;;;;;;;;6.40;75.10;;;;;;4956161;28;117431;-82
2020/12/11 04:52:16;;;;;;;;;;;6.40;75.00;;;;;;4971577;28;118513;-82
2020/12/11 04:54:42;;;;;;;;;;;6.40;75.00;;;;;;4955553;28;117563;-82
2020/12/11 04:57:08;;;;;;;;;;;6.40;75.00;;;;;;4956156;28;117508;-82
2020/12/11 04:59:33;;;;;;;;;;;6.40;75.00;;;;;;4956296;28;117883;-82
2020/12/11 05:01:59;;;;;;;;;;;6.40;75.00;;;;;;4955501;28;119412;-82
2020/12/11 05:04:25;;;;;;;;;;;6.40;75.00;;;;;;4972218;28;118474;-82
2020/12/11 05:06:51;;;;;;;;;;;6.40;75.00;;;;;;4956363;28;117590;-82
2020/12/11 05:09:17;;;;;;;;;;;6.40;75.00;;;;;;4957337;28;117885;-82
2020/12/11 05:11:43;;;;;;;;;;;6.40;75.00;;;;;;4956074;28;117786;-82
2020/12/11 05:14:27;;;;;;;;;;;6.40;74.90;;;;;;4956839;28;119632;-82
2020/12/11 05:16:57;;;;;;;;;;;6.40;75.00;;;;;;4974622;28;117456;-82
2020/12/11 05:19:22;;;;;;;;;;;6.40;74.90;;;;;;4958215;28;117913;-82
2020/12/11 05:21:48;;;;;;;;;;;6.30;74.90;;;;;;4957750;28;117562;-82
2020/12/11 05:24:13;;;;;;;;;;;6.30;75.50;;;;;;4956904;28;118648;-82
2020/12/11 05:26:39;;;;;;;;;;;6.30;74.80;;;;;;4958977;28;117852;-82
2020/12/11 05:29:04;;;;;;;;;;;6.40;74.90;;;;;;4958992;28;117790;-82
2020/12/11 05:31:30;;;;;;;;;;;6.30;74.80;;;;;;4959230;28;119920;-82
2020/12/11 05:34:02;;;;;;;;;;;6.40;74.90;;;;;;4958706;28;117931;-82
2020/12/11 05:36:28;;;;;;;;;;;6.30;74.80;;;;;;4976037;28;117535;-82
2020/12/11 05:38:53;;;;;;;;;;;6.30;74.80;;;;;;4960265;28;117784;-82
2020/12/11 05:41:34;;;;;;;;;;;6.30;74.80;;;;;;4959583;28;117640;-82
2020/12/11 05:44:00;;;;;;;;;;;6.30;74.70;;;;;;4959598;28;118968;-82
2020/12/11 05:46:31;;;;;;;;;;;6.40;74.80;;;;;;4960490;28;117292;-82
2020/12/11 05:49:00;;;;;;;;;;;6.30;74.70;;;;;;4961351;28;117272;-82
2020/12/11 05:51:38;;;;;;;;;;;6.30;74.70;;;;;;4962019;28;117512;-82
2020/12/11 05:54:04;;;;;;;;;;;6.30;74.70;;;;;;4961042;28;117418;-82
2020/12/11 05:56:29;;;;;;;;;;;6.30;74.70;;;;;;4962996;28;117533;-82
2020/12/11 05:58:55;;;;;;;;;;;6.30;74.70;;;;;;4958141;28;117889;-82
2020/12/11 06:01:20;;;;;;;;;;;6.30;74.60;;;;;;4953630;28;120599;-82
2020/12/11 06:03:46;;;;;;;;;;;6.30;74.60;;;;;;4953969;28;119733;-82
2020/12/11 06:06:14;;;;;;;;;;;6.30;74.70;;;;;;4954905;28;117824;-82
2020/12/11 06:08:39;;;;;;;;;;;6.40;74.70;;;;;;4955624;28;117863;-82
2020/12/11 06:11:05;;;;;;;;;;;6.30;74.60;;;;;;4954505;28;120411;-82
2020/12/11 06:13:38;;;;;;;;;;;6.30;74.60;;;;;;4969991;28;118437;-82
2020/12/11 06:16:04;;;;;;;;;;;6.30;74.60;;;;;;4955868;28;117440;-82
2020/12/11 06:18:30;;;;;;;;;;;6.30;74.60;;;;;;4956214;28;117803;-82
2020/12/11 06:20:55;;;;;;;;;;;6.30;74.60;;;;;;4972366;28;117559;-82
2020/12/11 06:23:22;;;;;;;;;;;6.30;74.50;;;;;;4956038;28;117356;-82
2020/12/11 06:25:54;;;;;;;;;;;6.30;74.60;;;;;;4957132;28;117571;-82
2020/12/11 06:28:34;;;;;;;;;;;6.30;74.60;;;;;;4957562;28;118121;-83
2020/12/11 06:31:00;;;;;;;;;;;6.30;74.60;;;;;;4992157;28;117596;-83
2020/12/11 06:33:30;;;;;;;;;;;6.30;74.60;;;;;;4956530;28;118559;-83
2020/12/11 06:35:56;;;;;;;;;;;6.30;74.50;;;;;;4958326;28;117629;-82
2020/12/11 06:38:40;;;;;;;;;;;6.30;74.60;;;;;;4957092;28;117884;-82
2020/12/11 06:41:06;;;;;;;;;;;6.30;75.10;;;;;;4973430;28;119831;-82
2020/12/11 06:43:40;;;;;;;;;;;6.30;74.50;;;;;;4957614;28;120771;-82
2020/12/11 06:46:16;;;;;;;;;;;6.30;74.50;;;;;;4974803;28;117530;-82
2020/12/11 06:49:00;;;;;;;;;;;6.30;74.50;;;;;;4959379;28;118008;-82
2020/12/11 06:51:25;;;;;;;;;;;6.30;74.50;;;;;;4974297;28;117634;-82
2020/12/11 06:53:51;;;;;;;;;;;6.30;74.50;;;;;;4958605;28;118830;-82
2020/12/11 06:56:35;;;;;;;;;;;6.30;74.50;;;;;;4959295;28;117578;-82
2020/12/11 06:59:21;;;;;;;;;;;6.30;74.50;;;;;;4976190;28;117317;-82
2020/12/11 07:01:46;;;;;;;;;;;6.30;74.50;;;;;;4975620;28;118796;-82
2020/12/11 07:04:12;;;;;;;;;;;6.30;74.40;;;;;;4959009;28;118059;-83
2020/12/11 07:06:37;;;;;;;;;;;6.30;74.50;;;;;;4960596;28;117537;-83
2020/12/11 07:09:03;;;;;;;;;;;6.30;74.40;;;;;;4978490;28;117561;-82
2020/12/11 07:11:29;;;;;;;;;;;6.30;74.60;;;;;;4976516;28;117754;-82
2020/12/11 07:13:54;;;;;;;;;;;6.30;74.50;;;;;;4958714;28;119553;-82
2020/12/11 07:16:20;;;;;;;;;;;6.30;74.50;;;;;;4953283;28;117438;-82
2020/12/11 07:18:46;;;;;;;;;;;6.30;74.40;;;;;;4953456;28;117436;-82
2020/12/11 07:21:12;;;;;;;;;;;6.30;74.40;;;;;;4952933;28;120467;-82
2020/12/11 07:23:38;;;;;;;;;;;6.30;74.40;;;;;;4969720;28;117367;-82
2020/12/11 07:26:03;;;;;;;;;;;6.30;74.40;;;;;;4954122;28;117560;-82
2020/12/11 07:28:29;;;;;;;;;;;6.30;74.40;;;;;;4970606;28;117666;-82
2020/12/11 07:30:54;;;;;;;;;;;6.30;74.40;;;;;;4953630;28;117471;-82
2020/12/11 07:33:20;;;;;;;;;;;6.30;74.40;;;;;;4970158;28;117451;-82
2020/12/11 07:35:46;;;;;;;;;;;6.30;74.40;;;;;;4954343;28;117547;-82
2020/12/11 07:38:12;;;;;;;;;;;6.30;74.40;;;;;;4955610;28;117853;-83
2020/12/11 07:40:37;;;;;;;;;;;6.30;74.40;;;;;;4954422;28;117856;-83
2020/12/11 07:43:04;;;;;;;;;;;6.30;74.40;;;;;;4954155;28;118645;-83
2020/12/11 07:45:31;;;;;;;;;;;6.30;75.00;;;;;;4955895;28;117607;-83
2020/12/11 07:47:57;;;;;;;;;;;6.30;74.40;;;;;;4957394;28;117425;-83
2020/12/11 07:50:23;;;;;;;;;;;6.30;74.40;;;;;;4955936;28;120231;-83
2020/12/11 07:52:49;;;;;;;;;;;6.30;74.40;;;;;;4954875;28;118486;-83
2020/12/11 07:55:15;;;;;;;;;;;6.30;74.30;;;;;;4956330;28;117706;-83
2020/12/11 07:57:41;;;;;;;;;;;6.30;74.30;;;;;;4953536;28;117354;-83
2020/12/11 08:00:07;;;;;;;;;;;6.30;74.30;;;;;;4951857;28;118697;-83
2020/12/11 08:02:34;;;;;;;;;;;6.30;75.00;;;;;;4952862;28;117872;-83
2020/12/11 08:05:00;;;;;;;;;;;6.30;74.40;;;;;;4955615;28;117413;-82
2020/12/11 08:07:26;;;;;;;;;;;6.30;74.40;;;;;;4957559;28;117838;-82
2020/12/11 08:09:51;;;;;;;;;;;6.30;74.30;;;;;;4958508;28;117629;-82
2020/12/11 08:12:17;;;;;;;;;;;6.30;74.30;;;;;;4956936;28;120115;-82
2020/12/11 08:14:43;;;;;;;;;;;6.30;74.30;;;;;;4980204;28;117480;-81
2020/12/11 08:17:10;;;;;;;;;;;6.30;74.30;;;;;;4966048;28;117244;-81
2020/12/11 08:19:36;;;;;;;;;;;6.30;74.30;;;;;;4965922;28;118675;-82
2020/12/11 08:22:15;;;;;;;;;;;6.30;74.30;;;;;;4966974;28;118409;-82
2020/12/11 08:24:40;;;;;;;;;;;6.30;74.30;;;;;;4969585;28;116648;-82
2020/12/11 08:27:06;;;;;;;;;;;6.30;74.30;;;;;;4969961;28;117642;-82
2020/12/11 08:29:32;;;;;;;;;;;6.30;74.30;;;;;;4964686;28;117836;-82
2020/12/11 08:31:57;;;;;;;;;;;6.30;74.30;;;;;;4955670;28;118433;-82
2020/12/11 08:34:27;;;;;;;;;;;6.30;74.30;;;;;;4956935;28;117282;-82
2020/12/11 08:36:59;;;;;;;;;;;6.30;74.30;;;;;;4957407;28;117742;-82
2020/12/11 08:39:25;;;;;;;;;;;6.30;74.30;;;;;;4956525;28;118527;-82
2020/12/11 08:42:27;;;;;;;;;;;6.30;74.30;;;;;;4956784;28;117442;-82
2020/12/11 08:50:22;;;;;;;;;;;6.30;74.30;;;;;;4974479;28;117949;-82
2020/12/11 08:52:39;;;;;;;;;;;6.30;74.20;;;;;;4975768;28;117737;-82
2020/12/11 08:55:05;;;;;;;;;;;6.30;74.20;;;;;;4959463;28;117579;-82
2020/12/11 08:57:32;;;;;;;;;;;6.30;74.20;;;;;;4959767;28;117816;-82
2020/12/11 08:59:58;;;;;;;;;;;6.30;74.20;;;;;;4976145;28;118730;-82
2020/12/11 09:02:24;;;;;;;;;;;6.30;74.20;;;;;;4959846;28;117562;-82
2020/12/11 09:04:49;;;;;;;;;;;6.30;74.10;;;;;;4961014;28;117577;-82
2020/12/11 09:07:15;;;;;;;;;;;6.30;74.20;;;;;;4960677;28;118015;-82
2020/12/11 09:09:40;;;;;;;;;;;6.30;74.20;;;;;;4960309;28;119677;-82
2020/12/11 09:12:06;;;;;;;;;;;6.30;74.10;;;;;;4960184;28;119499;-82
2020/12/11 09:14:31;;;;;;;;;;;6.30;74.20;;;;;;4962210;28;117588;-82
2020/12/11 09:16:57;;;;;;;;;;;6.30;74.20;;;;;;4963625;28;117868;-82
2020/12/11 09:19:22;;;;;;;;;;;6.30;74.80;;;;;;4961800;28;118772;-82
2020/12/11 09:21:48;;;;;;;;;;;6.30;74.30;;;;;;4962261;28;117772;-82
2020/12/11 09:24:13;;;;;;;;;;;6.30;74.20;;;;;;4964554;28;117459;-82
2020/12/11 09:26:39;;;;;;;;;;;6.30;74.20;;;;;;4964843;28;118066;-82
2020/12/11 09:29:40;;;;;;;;;;;6.30;74.20;;;;;;4963747;28;120314;-82
2020/12/11 09:31:58;;;;;;;;;;;6.30;74.10;;;;;;4981594;28;117860;-82
2020/12/11 09:34:24;;;;;;;;;;;6.30;74.20;;;;;;4966921;28;117487;-82
2020/12/11 09:36:49;;;;;;;;;;;6.30;74.20;;;;;;4967789;28;116845;-82
2020/12/11 09:39:15;;;;;;;;;;;6.30;74.10;;;;;;4966187;28;120031;-82
2020/12/11 09:41:45;;;;;;;;;;;6.30;74.20;;;;;;4966941;28;119585;-82
2020/12/11 09:50:00;;;;;;;;;;;6.30;74.10;;;;;;4971845;28;118265;-82
2020/12/11 09:54:50;;;;;;;;;;;6.30;74.10;;;;;;4972312;28;117598;-82
2020/12/11 09:57:16;;;;;;;;;;;6.30;74.10;;;;;;4956178;28;117755;-82
2020/12/11 09:59:50;;;;;;;;;;;6.30;74.10;;;;;;4972570;28;118726;-82
2020/12/11 10:03:06;;;;;;;;;;;6.30;74.10;;;;;;4957354;28;118108;-82
2020/12/11 10:05:03;;;;;;;;;;;6.30;74.10;;;;;;4965685;28;117595;-82
2020/12/11 10:07:29;;;;;;;;;;;6.30;74.10;;;;;;4959220;28;117916;-82
2020/12/11 10:09:54;;;;;;;;;;;6.30;74.10;;;;;;4958593;28;119511;-82
2020/12/11 10:12:22;;;;;;;;;;;6.30;74.10;;;;;;4974422;22;118479;-85
2020/12/11 10:14:54;;;;;;;;;;;6.30;74.20;;;;;;4985909;28;117413;-85
2020/12/11 10:17:22;;;;;;;;;;;6.30;74.10;;;;;;4968916;28;117379;-85
2020/12/11 10:29:13;;;;;;;;;;;6.30;74.10;;;;;;4999864;22;117890;-86
2020/12/11 10:31:42;;;;;;;;;;;6.30;74.20;;;;;;4940738;28;121834;-87
2020/12/11 10:34:08;;;;;;;;;;;6.30;74.20;;;;;;4931935;28;120666;-86
2020/12/11 10:36:34;;;;;;;;;;;6.30;74.10;;;;;;4932385;28;117487;-86
2020/12/11 10:38:59;;;;;;;;;;;6.30;74.10;;;;;;4932811;28;117572;-86
2020/12/11 10:41:25;;;;;;;;;;;6.40;74.20;;;;;;4931520;28;121132;-87
2020/12/11 10:43:51;;;;;;;;;;;6.30;74.20;;;;;;4931513;28;119337;-87
2020/12/11 10:46:16;;;;;;;;;;;6.30;74.10;;;;;;4932245;28;117421;-87
2020/12/11 10:48:42;;;;;;;;;;;6.30;74.10;;;;;;4932206;28;117803;-87
2020/12/11 10:51:16;;;;;;;;;;;6.40;74.20;;;;;;4931199;28;121371;-86
2020/12/11 10:53:42;;;;;;;;;;;6.30;74.10;;;;;;4931485;28;120687;-87
2020/12/11 10:56:08;;;;;;;;;;;6.30;74.10;;;;;;4932628;28;117348;-87
2020/12/11 10:58:33;;;;;;;;;;;6.30;74.10;;;;;;4933014;28;117214;-87
2020/12/11 11:00:59;;;;;;;;;;;6.30;74.10;;;;;;4947788;28;117540;-87
2020/12/11 11:03:28;;;;;;;;;;;6.30;74.20;;;;;;4932261;28;117389;-87
2020/12/11 11:06:00;;;;;;;;;;;6.30;74.20;;;;;;4932413;28;117832;-87
2020/12/11 11:08:34;;;;;;;;;;;6.30;74.20;;;;;;4933213;28;117538;-87
2020/12/11 11:10:59;;;;;;;;;;;6.30;74.20;;;;;;4933700;28;121827;-87
2020/12/11 11:13:43;;;;;;;;;;;6.30;74.10;;;;;;4930970;28;120574;-87
2020/12/11 11:16:09;;;;;;;;;;;6.30;74.10;;;;;;4934700;28;117371;-87
2020/12/11 11:18:43;;;;;;;;;;;6.30;74.10;;;;;;4932548;28;117389;-87
2020/12/11 11:23:48;;;;;;;;;;;6.40;74.20;;;;;;4947485;28;117661;-87
2020/12/11 11:26:35;;;;;;;;;;;6.40;74.20;;;;;;4933629;28;117686;-87
2020/12/11 11:29:00;;;;;;;;;;;6.30;74.10;;;;;;4933378;28;117691;-87
2020/12/11 11:31:26;;;;;;;;;;;6.40;74.10;;;;;;4930748;28;120586;-87
2020/12/11 11:33:51;;;;;;;;;;;6.40;74.20;;;;;;4931011;28;119433;-86
2020/12/11 11:36:17;;;;;;;;;;;6.40;74.20;;;;;;4931380;28;117949;-87
2020/12/11 11:38:42;;;;;;;;;;;6.40;74.20;;;;;;4931328;28;117431;-87
2020/12/11 11:41:08;;;;;;;;;;;6.30;74.10;;;;;;4930295;28;121351;-86
2020/12/11 11:43:50;;;;;;;;;;;6.30;74.10;;;;;;4931957;28;119509;-86
2020/12/11 11:46:16;;;;;;;;;;;6.40;74.20;;;;;;4937037;28;117585;-87
2020/12/11 11:48:44;;;;;;;;;;;6.40;74.20;;;;;;4935288;28;117388;-87
2020/12/11 11:51:17;;;;;;;;;;;6.30;74.10;;;;;;4934072;28;121213;-86
2020/12/11 11:53:42;;;;;;;;;;;6.40;74.20;;;;;;4935063;28;119606;-86
2020/12/11 11:56:08;;;;;;;;;;;6.40;74.20;;;;;;4951669;28;117462;-87
2020/12/11 11:58:33;;;;;;;;;;;6.40;74.20;;;;;;4935084;28;117735;-87
2020/12/11 12:00:59;;;;;;;;;;;6.40;74.10;;;;;;4934061;28;120454;-86
2020/12/11 12:03:24;;;;;;;;;;;6.30;74.20;;;;;;4933218;28;123663;-87
2020/12/11 12:05:50;;;;;;;;;;;6.40;74.20;;;;;;4934603;28;117436;-86
2020/12/11 12:08:20;;;;;;;;;;;6.40;74.20;;;;;;4935194;28;117906;-87
2020/12/11 12:10:45;;;;;;;;;;;6.40;74.20;;;;;;4934138;28;120971;-86
2020/12/11 12:13:11;;;;;;;;;;;6.40;74.10;;;;;;4934257;28;120754;-87
2020/12/11 12:15:36;;;;;;;;;;;6.30;74.10;;;;;;4935297;28;117466;-86
2020/12/11 12:18:05;;;;;;;;;;;6.40;74.10;;;;;;4935695;28;117478;-87
2020/12/11 12:20:38;;;;;;;;;;;6.40;74.10;;;;;;4951373;28;117721;-86
2020/12/11 12:31:08;;;;;;;;;;;6.40;74.20;;;;;;4940671;28;118066;-86
2020/12/11 12:38:45;;;;;;;;;;;6.40;74.20;;;;;;4952188;28;117526;-87
2020/12/11 12:43:56;;;;;;;;;;;6.30;74.20;;;;;;4951786;28;117553;-87
2020/12/11 12:46:21;;;;;;;;;;;6.30;74.20;;;;;;4951642;28;117374;-87
2020/12/11 12:48:47;;;;;;;;;;;6.40;74.20;;;;;;4935311;28;117367;-87
2020/12/11 12:51:12;;;;;;;;;;;6.40;74.20;;;;;;4932805;28;129997;-87
2020/12/11 12:53:38;;;;;;;;;;;6.30;74.10;;;;;;4932944;28;120113;-87
2020/12/11 12:58:50;;;;;;;;;;;6.30;74.10;;;;;;4950625;28;117499;-87
2020/12/11 13:01:21;;;;;;;;;;;6.40;74.20;;;;;;4949332;28;118362;-86
2020/12/11 13:06:12;;;;;;;;;;;6.40;74.20;;;;;;4950349;28;117851;-87
2020/12/11 13:08:37;;;;;;;;;;;6.40;74.20;;;;;;4934208;28;117943;-87
2020/12/11 13:11:03;;;;;;;;;;;6.40;74.20;;;;;;4949384;28;117537;-86
2020/12/11 13:13:28;;;;;;;;;;;6.30;74.20;;;;;;4949541;28;117824;-87
2020/12/11 13:15:54;;;;;;;;;;;6.30;74.10;;;;;;4933613;28;117497;-87
2020/12/11 13:18:19;;;;;;;;;;;6.40;74.20;;;;;;4933554;28;117425;-87
2020/12/11 13:20:46;;;;;;;;;;;6.40;74.20;;;;;;4932748;28;121335;-86
2020/12/11 13:28:29;;;;;;;;;;;6.40;74.20;;;;;;4923150;28;117696;-88
2020/12/11 13:30:54;;;;;;;;;;;6.40;74.20;;;;;;4932832;28;118447;-88
2020/12/11 13:33:20;;;;;;;;;;;6.40;74.20;;;;;;4933097;28;119925;-88
2020/12/11 13:35:45;;;;;;;;;;;6.40;74.30;;;;;;4950910;28;117710;-88
2020/12/11 13:38:11;;;;;;;;;;;6.40;74.20;;;;;;4934490;28;117878;-88
2020/12/11 13:40:36;;;;;;;;;;;6.40;74.20;;;;;;4933054;28;120394;-87
2020/12/11 13:43:02;;;;;;;;;;;6.40;74.20;;;;;;4932362;28;119623;-88
2020/12/11 13:45:27;;;;;;;;;;;6.30;74.20;;;;;;4950493;28;117410;-89
2020/12/11 13:47:55;;;;;;;;;;;6.40;74.80;;;;;;4950929;28;117373;-90
2020/12/11 13:50:21;;;;;;;;;;;6.40;74.20;;;;;;4933404;28;117498;-91
2020/12/11 13:52:47;;;;;;;;;;;6.40;74.80;;;;;;4932868;28;119346;-90
2020/12/11 13:55:21;;;;;;;;;;;6.30;74.20;;;;;;4933672;28;117555;-90
2020/12/11 13:57:47;;;;;;;;;;;6.40;74.30;;;;;;4942252;28;117304;-90
2020/12/11 14:00:12;;;;;;;;;;;6.40;74.30;;;;;;4932719;28;119933;-90
2020/12/11 14:02:39;;;;;;;;;;;6.40;74.30;;;;;;4948513;28;117789;-90
2020/12/11 14:05:05;;;;;;;;;;;6.40;74.30;;;;;;4933247;28;117480;-89
2020/12/11 14:07:30;;;;;;;;;;;6.40;74.30;;;;;;4932509;28;117405;-89
2020/12/11 14:09:56;;;;;;;;;;;6.40;74.30;;;;;;4932080;28;119980;-89
2020/12/11 14:12:21;;;;;;;;;;;6.40;74.30;;;;;;4931780;28;120197;-89
2020/12/11 14:14:47;;;;;;;;;;;6.40;74.30;;;;;;4932732;28;117548;-88
2020/12/11 14:17:14;;;;;;;;;;;6.40;74.30;;;;;;4933086;28;117393;-88
2020/12/11 14:22:26;;;;;;;;;;;6.40;74.30;;;;;;4948203;28;117869;-89
2020/12/11 14:24:52;;;;;;;;;;;6.40;74.30;;;;;;4934791;28;117564;-89
2020/12/11 14:27:41;;;;;;;;;;;6.40;74.30;;;;;;4933010;28;117383;-91
2020/12/11 14:30:10;;;;;;;;;;;6.40;74.30;;;;;;4962880;28;117834;-91
2020/12/11 14:32:48;;;;;;;;;;;6.40;74.30;;;;;;4947345;28;117735;-91
2020/12/11 14:35:35;;;;;;;;;;;6.40;74.40;;;;;;4965031;28;117914;-91
2020/12/11 14:38:30;;;;;;;;;;;6.30;74.30;;;;;;4946313;28;117402;-91
2020/12/11 14:41:18;;;;;;;;;;;6.40;74.30;;;;;;4947260;28;118585;-91
2020/12/11 14:43:45;;;;;;;;;;;6.40;74.40;;;;;;4946747;28;117496;-91
2020/12/11 14:46:17;;;;;;;;;;;6.40;74.30;;;;;;4948584;28;117411;-91
2020/12/11 14:48:42;;;;;;;;;;;6.40;74.20;;;;;;4949333;28;117363;-91
2020/12/11 14:51:08;;;;;;;;;;;6.40;74.20;;;;;;4932189;28;120275;-91
2020/12/11 14:53:33;;;;;;;;;;;6.40;74.20;;;;;;4931762;28;119658;-91
2020/12/11 14:55:59;;;;;;;;;;;6.30;74.20;;;;;;4932849;28;117308;-91
2020/12/11 14:58:24;;;;;;;;;;;6.40;74.20;;;;;;4932926;28;117284;-91
2020/12/11 15:00:51;;;;;;;;;;;6.40;74.20;;;;;;4931649;28;120862;-91
2020/12/11 15:03:17;;;;;;;;;;;6.40;74.30;;;;;;4932162;28;119071;-91
2020/12/11 15:05:43;;;;;;;;;;;6.40;74.30;;;;;;4932413;28;117757;-91
2020/12/11 15:08:08;;;;;;;;;;;6.40;74.30;;;;;;4932824;28;117602;-91
2020/12/11 15:10:34;;;;;;;;;;;6.40;74.30;;;;;;4931285;28;119985;-91
2020/12/11 15:13:00;;;;;;;;;;;6.40;74.20;;;;;;4931310;28;118957;-91